createdAt,value
2018-04-07T00:01:02.535Z,5.50
2018-04-07T00:03:30.678Z,5.50
2018-04-07T00:05:58.809Z,5.50
2018-04-07T00:08:26.946Z,5.40
2018-04-07T00:10:55.119Z,5.40
2018-04-07T00:13:23.275Z,5.30
2018-04-07T00:15:51.439Z,5.20
2018-04-07T00:18:19.583Z,5.20
2018-04-07T00:20:47.714Z,5.10
2018-04-07T00:23:16.601Z,5.20
2018-04-07T00:25:45.533Z,5.30
2018-04-07T00:28:14.013Z,5.30
2018-04-07T00:30:42.249Z,5.20
2018-04-07T00:33:10.381Z,5.10
2018-04-07T00:35:38.629Z,5.20
2018-04-07T00:38:06.755Z,5.10
2018-04-07T00:40:34.902Z,5.20
2018-04-07T00:43:03.030Z,5.10
2018-04-07T00:45:31.222Z,5.00
2018-04-07T00:47:59.381Z,5.00
2018-04-07T00:50:28.250Z,5.20
2018-04-07T00:52:56.379Z,5.10
2018-04-07T00:55:24.623Z,5.10
2018-04-07T00:57:52.764Z,5.10
2018-04-07T01:00:20.906Z,5.00
2018-04-07T01:02:49.040Z,5.10
2018-04-07T01:05:17.167Z,5.10
2018-04-07T01:07:45.382Z,5.10
2018-04-07T01:10:13.511Z,5.10
2018-04-07T01:12:43.154Z,5.00
2018-04-07T01:15:11.284Z,5.00
2018-04-07T01:17:39.427Z,5.00
2018-04-07T01:20:07.623Z,5.00
2018-04-07T01:22:35.762Z,5.00
2018-04-07T01:25:03.899Z,5.00
2018-04-07T01:27:32.050Z,5.00
2018-04-07T01:30:00.960Z,5.00
2018-04-07T01:32:29.882Z,5.00
2018-04-07T01:34:58.002Z,5.00
2018-04-07T01:37:26.914Z,4.90
2018-04-07T01:39:55.042Z,4.90
2018-04-07T01:42:23.189Z,4.80
2018-04-07T01:44:51.310Z,4.70
2018-04-07T01:47:20.250Z,4.60
2018-04-07T01:49:49.242Z,4.60
2018-04-07T01:52:17.389Z,4.60
2018-04-07T01:54:45.525Z,4.50
2018-04-07T01:57:13.691Z,4.50
2018-04-07T01:59:41.819Z,4.40
2018-04-07T02:02:09.966Z,4.40
2018-04-07T02:04:38.118Z,4.40
2018-04-07T02:07:07.027Z,4.40
2018-04-07T02:09:35.169Z,4.40
2018-04-07T02:12:03.289Z,4.40
2018-04-07T02:14:31.449Z,4.40
2018-04-07T02:16:59.582Z,4.30
2018-04-07T02:19:27.734Z,4.30
2018-04-07T02:21:55.853Z,4.20
2018-04-07T02:24:24.761Z,4.10
2018-04-07T02:26:52.893Z,4.10
2018-04-07T02:29:21.054Z,4.10
2018-04-07T02:31:49.278Z,4.10
2018-04-07T02:34:17.419Z,4.00
2018-04-07T02:36:46.311Z,4.00
2018-04-07T02:39:15.216Z,4.00
2018-04-07T02:41:43.425Z,4.00
2018-04-07T02:44:11.573Z,3.90
2018-04-07T02:46:39.722Z,4.00
2018-04-07T02:49:07.908Z,4.10
2018-04-07T02:51:36.095Z,4.20
2018-04-07T02:54:04.224Z,4.20
2018-04-07T02:56:33.130Z,4.30
2018-04-07T02:59:01.268Z,4.30
2018-04-07T03:01:29.409Z,4.20
2018-04-07T03:03:57.540Z,4.30
2018-04-07T03:06:26.450Z,4.20
2018-04-07T03:08:54.602Z,4.20
2018-04-07T03:11:22.753Z,4.30
2018-04-07T03:13:50.874Z,4.30
2018-04-07T03:16:19.019Z,4.30
2018-04-07T03:18:47.134Z,4.30
2018-04-07T03:21:15.282Z,4.20
2018-04-07T03:23:43.546Z,4.10
2018-04-07T03:26:11.686Z,4.10
2018-04-07T03:28:40.209Z,4.10
2018-04-07T03:31:08.472Z,4.00
2018-04-07T03:33:36.606Z,4.10
2018-04-07T03:36:04.771Z,4.10
2018-04-07T03:38:32.907Z,4.00
2018-04-07T03:41:01.041Z,4.10
2018-04-07T03:43:29.228Z,4.10
2018-04-07T03:45:57.363Z,4.10
2018-04-07T03:48:25.526Z,4.10
2018-04-07T03:50:53.678Z,4.00
2018-04-07T03:53:21.818Z,4.00
2018-04-07T03:55:50.075Z,3.90
2018-04-07T03:58:18.226Z,3.90
2018-04-07T04:00:47.209Z,3.90
2018-04-07T04:03:15.361Z,3.90
2018-04-07T04:05:43.478Z,3.90
2018-04-07T04:08:12.383Z,4.00
2018-04-07T04:10:40.508Z,4.00
2018-04-07T04:13:10.161Z,4.00
2018-04-07T04:15:38.274Z,4.00
2018-04-07T04:18:06.410Z,3.90
2018-04-07T04:20:34.580Z,3.90
2018-04-07T04:23:02.750Z,3.90
2018-04-07T04:25:30.931Z,3.90
2018-04-07T04:27:59.106Z,3.90
2018-04-07T04:30:27.243Z,3.90
2018-04-07T04:32:55.369Z,3.90
2018-04-07T04:35:23.514Z,3.90
2018-04-07T04:37:51.623Z,3.90
2018-04-07T04:40:19.833Z,3.90
2018-04-07T04:42:47.950Z,3.90
2018-04-07T04:45:16.085Z,3.90
2018-04-07T04:47:44.215Z,4.00
2018-04-07T04:50:12.356Z,4.00
2018-04-07T04:52:40.488Z,4.00
2018-04-07T04:55:08.652Z,4.00
2018-04-07T04:57:36.737Z,4.00
2018-04-07T05:00:04.871Z,4.00
2018-04-07T05:02:32.998Z,4.10
2018-04-07T05:05:01.149Z,4.10
2018-04-07T05:07:29.279Z,4.10
2018-04-07T05:09:57.401Z,4.10
2018-04-07T05:12:25.539Z,4.10
2018-04-07T05:14:53.666Z,4.20
2018-04-07T05:17:21.811Z,4.20
2018-04-07T05:19:49.938Z,4.20
2018-04-07T05:22:19.582Z,4.30
2018-04-07T05:24:47.712Z,4.30
2018-04-07T05:27:15.858Z,4.40
2018-04-07T05:29:43.980Z,4.50
2018-04-07T05:32:12.119Z,4.60
2018-04-07T05:34:40.238Z,4.70
2018-04-07T05:37:08.378Z,4.80
2018-04-07T05:39:36.542Z,5.00
2018-04-07T05:42:04.666Z,5.10
2018-04-07T05:44:32.789Z,5.20
2018-04-07T05:47:00.933Z,5.40
2018-04-07T05:49:29.088Z,5.50
2018-04-07T05:51:57.257Z,5.80
2018-04-07T05:54:25.378Z,6.00
2018-04-07T05:56:53.584Z,6.20
2018-04-07T05:59:21.736Z,6.40
2018-04-07T06:01:50.706Z,6.70
2018-04-07T06:04:18.841Z,6.70
2018-04-07T06:06:46.953Z,6.90
2018-04-07T06:09:15.092Z,7.00
2018-04-07T06:11:43.212Z,7.00
2018-04-07T06:14:12.117Z,7.40
2018-04-07T06:16:40.253Z,7.40
2018-04-07T06:19:08.390Z,7.60
2018-04-07T06:21:36.626Z,7.80
2018-04-07T06:24:05.526Z,8.20
2018-04-07T06:26:33.645Z,8.20
2018-04-07T06:29:01.785Z,8.40
2018-04-07T06:31:29.921Z,8.20
2018-04-07T06:33:58.812Z,8.50
2018-04-07T06:36:27.706Z,8.50
2018-04-07T06:38:56.652Z,8.80
2018-04-07T06:41:24.778Z,8.80
2018-04-07T06:43:52.898Z,9.00
2018-04-07T06:46:21.065Z,9.00
2018-04-07T06:48:49.187Z,9.10
2018-04-07T06:51:18.095Z,9.10
2018-04-07T06:53:46.222Z,9.10
2018-04-07T06:56:14.366Z,9.00
2018-04-07T06:58:42.481Z,9.10
2018-04-07T07:01:10.637Z,9.10
2018-04-07T07:03:38.839Z,9.20
2018-04-07T07:06:06.978Z,9.60
2018-04-07T07:08:35.093Z,9.70
2018-04-07T07:11:03.249Z,10.00
2018-04-07T07:13:31.405Z,10.20
2018-04-07T07:16:00.347Z,10.40
2018-04-07T07:18:28.461Z,10.40
2018-04-07T07:20:57.463Z,10.00
2018-04-07T07:23:26.361Z,10.50
2018-04-07T07:25:54.527Z,10.40
2018-04-07T07:28:23.490Z,10.80
2018-04-07T07:30:51.648Z,10.80
2018-04-07T07:33:19.788Z,10.80
2018-04-07T07:35:47.920Z,10.50
2018-04-07T07:38:16.939Z,10.60
2018-04-07T07:40:45.060Z,10.60
2018-04-07T07:43:13.583Z,10.70
2018-04-07T07:45:41.722Z,11.00
2018-04-07T07:48:09.862Z,11.20
2018-04-07T07:50:37.989Z,11.20
2018-04-07T07:53:06.186Z,11.40
2018-04-07T07:55:34.313Z,12.10
2018-04-07T07:58:02.479Z,12.90
2018-04-07T08:00:30.591Z,13.00
2018-04-07T08:02:58.750Z,13.10
2018-04-07T08:05:26.884Z,12.90
2018-04-07T08:07:55.036Z,12.60
2018-04-07T08:10:23.157Z,12.30
2018-04-07T08:12:52.063Z,13.30
2018-04-07T08:15:20.187Z,13.30
2018-04-07T08:17:48.349Z,13.40
2018-04-07T08:20:16.505Z,13.50
2018-04-07T08:22:44.619Z,13.50
2018-04-07T08:25:13.526Z,13.60
2018-04-07T08:27:42.437Z,14.10
2018-04-07T08:30:10.565Z,14.10
2018-04-07T08:32:38.691Z,13.70
2018-04-07T08:35:06.872Z,15.10
2018-04-07T08:37:34.997Z,14.50
2018-04-07T08:40:03.299Z,15.30
2018-04-07T08:42:31.410Z,15.30
2018-04-07T08:44:59.547Z,15.80
2018-04-07T08:47:27.663Z,16.10
2018-04-07T08:49:55.801Z,16.30
2018-04-07T08:52:23.925Z,15.70
2018-04-07T08:54:52.835Z,16.70
2018-04-07T08:57:21.065Z,16.60
2018-04-07T08:59:49.281Z,18.30
2018-04-07T09:02:17.417Z,18.00
2018-04-07T09:04:45.582Z,18.10
2018-04-07T09:07:13.702Z,18.30
2018-04-07T09:09:41.825Z,18.30
2018-04-07T09:12:09.989Z,17.60
2018-04-07T09:14:38.105Z,18.00
2018-04-07T09:17:06.310Z,18.40
2018-04-07T09:19:34.436Z,18.80
2018-04-07T09:22:02.706Z,18.30
2018-04-07T09:24:31.602Z,20.50
2018-04-07T09:26:59.798Z,20.40
2018-04-07T09:29:27.929Z,18.50
2018-04-07T09:31:56.990Z,19.10
2018-04-07T09:34:25.109Z,19.10
2018-04-07T09:36:53.257Z,20.70
2018-04-07T09:39:21.378Z,20.70
2018-04-07T09:41:49.524Z,21.30
2018-04-07T09:44:18.489Z,22.80
2018-04-07T09:46:46.578Z,22.80
2018-04-07T09:49:14.708Z,22.90
2018-04-07T09:51:42.864Z,22.00
2018-04-07T09:54:11.509Z,21.70
2018-04-07T09:56:39.788Z,22.90
2018-04-07T09:59:07.917Z,21.10
2018-04-07T10:01:36.840Z,20.70
2018-04-07T10:04:05.046Z,20.60
2018-04-07T10:06:33.171Z,21.60
2018-04-07T10:09:02.062Z,23.40
2018-04-07T10:11:30.213Z,23.40
2018-04-07T10:13:58.418Z,21.60
2018-04-07T10:16:26.611Z,20.20
2018-04-07T10:18:55.596Z,20.00
2018-04-07T10:21:23.718Z,21.60
2018-04-07T10:23:52.635Z,23.10
2018-04-07T10:26:20.843Z,23.00
2018-04-07T10:28:48.974Z,23.80
2018-04-07T10:31:17.245Z,24.60
2018-04-07T10:33:46.148Z,22.00
2018-04-07T10:36:14.292Z,21.90
2018-04-07T10:38:42.418Z,22.10
2018-04-07T10:41:10.546Z,22.40
2018-04-07T10:43:38.701Z,22.60
2018-04-07T10:46:06.830Z,23.70
2018-04-07T10:48:34.977Z,24.60
2018-04-07T10:51:03.353Z,24.40
2018-04-07T10:53:31.475Z,23.40
2018-04-07T10:55:59.614Z,23.40
2018-04-07T10:58:27.738Z,24.20
2018-04-07T11:00:56.754Z,23.30
2018-04-07T11:03:24.879Z,23.30
2018-04-07T11:05:53.020Z,21.80
2018-04-07T11:08:21.141Z,21.60
2018-04-07T11:10:50.053Z,21.80
2018-04-07T11:13:18.181Z,21.80
2018-04-07T11:15:46.332Z,22.80
2018-04-07T11:18:14.450Z,21.60
2018-04-07T11:20:43.468Z,21.60
2018-04-07T11:23:11.590Z,21.50
2018-04-07T11:25:39.719Z,20.80
2018-04-07T11:28:07.839Z,22.10
2018-04-07T11:30:35.980Z,22.90
2018-04-07T11:33:04.097Z,22.90
2018-04-07T11:35:32.995Z,23.30
2018-04-07T11:38:01.879Z,22.10
2018-04-07T11:40:30.777Z,24.10
2018-04-07T11:42:58.913Z,24.10
2018-04-07T11:45:27.045Z,23.70
2018-04-07T11:47:55.166Z,23.40
2018-04-07T11:50:24.075Z,23.90
2018-04-07T11:52:52.201Z,23.90
2018-04-07T11:55:20.317Z,23.80
2018-04-07T11:57:48.466Z,22.70
2018-04-07T12:00:16.589Z,22.80
2018-04-07T12:02:44.767Z,23.70
2018-04-07T12:05:12.854Z,23.60
2018-04-07T12:07:41.045Z,22.80
2018-04-07T12:10:09.162Z,23.20
2018-04-07T12:12:37.300Z,23.80
2018-04-07T12:15:06.182Z,22.20
2018-04-07T12:17:34.326Z,22.10
2018-04-07T12:20:02.458Z,23.60
2018-04-07T12:22:30.593Z,23.90
2018-04-07T12:24:58.718Z,23.10
2018-04-07T12:27:26.875Z,23.20
2018-04-07T12:29:55.098Z,23.70
2018-04-07T12:32:23.249Z,23.80
2018-04-07T12:34:51.394Z,22.40
2018-04-07T12:37:19.511Z,22.00
2018-04-07T12:39:48.540Z,23.00
2018-04-07T12:42:16.666Z,23.00
2018-04-07T12:44:45.033Z,23.00
2018-04-07T12:47:13.184Z,23.00
2018-04-07T12:49:41.342Z,22.70
2018-04-07T12:52:09.483Z,22.20
2018-04-07T12:54:38.388Z,22.80
2018-04-07T12:57:07.307Z,22.70
2018-04-07T12:59:35.452Z,22.70
2018-04-07T13:02:04.330Z,23.50
2018-04-07T13:04:33.231Z,23.80
2018-04-07T13:07:02.157Z,24.00
2018-04-07T13:09:31.037Z,23.80
2018-04-07T13:11:59.162Z,23.80
2018-04-07T13:14:27.366Z,23.80
2018-04-07T13:16:55.870Z,23.60
2018-04-07T13:19:23.970Z,23.40
2018-04-07T13:21:52.934Z,23.10
2018-04-07T13:24:21.066Z,23.00
2018-04-07T13:26:49.213Z,23.40
2018-04-07T13:29:17.336Z,23.10
2018-04-07T13:31:45.486Z,22.60
2018-04-07T13:34:13.678Z,23.10
2018-04-07T13:36:41.778Z,22.80
2018-04-07T13:39:09.891Z,22.80
2018-04-07T13:41:38.798Z,22.70
2018-04-07T13:44:06.961Z,22.60
2018-04-07T13:46:35.080Z,22.10
2018-04-07T13:49:03.230Z,21.50
2018-04-07T13:51:31.360Z,20.90
2018-04-07T13:54:00.258Z,20.60
2018-04-07T13:56:29.169Z,20.50
2018-04-07T13:58:57.294Z,20.50
2018-04-07T14:01:25.401Z,20.50
2018-04-07T14:03:53.542Z,20.20
2018-04-07T14:06:22.434Z,20.30
2018-04-07T14:08:51.345Z,20.40
2018-04-07T14:11:19.466Z,20.40
2018-04-07T14:13:47.596Z,20.10
2018-04-07T14:16:15.717Z,20.10
2018-04-07T14:18:43.866Z,20.00
2018-04-07T14:21:11.978Z,20.10
2018-04-07T14:23:40.893Z,20.00
2018-04-07T14:26:09.009Z,20.00
2018-04-07T14:28:37.145Z,20.00
2018-04-07T14:31:05.280Z,20.10
2018-04-07T14:33:33.581Z,20.10
2018-04-07T14:36:01.706Z,19.90
2018-04-07T14:38:29.832Z,19.90
2018-04-07T14:40:57.968Z,19.90
2018-04-07T14:43:26.852Z,19.90
2018-04-07T14:45:54.997Z,19.90
2018-04-07T14:48:23.114Z,19.90
2018-04-07T14:50:52.014Z,19.80
2018-04-07T14:53:20.909Z,19.80
2018-04-07T14:55:49.038Z,19.80
2018-04-07T14:58:17.152Z,19.80
2018-04-07T15:00:45.297Z,19.80
2018-04-07T15:03:14.179Z,19.70
2018-04-07T15:05:42.306Z,19.60
2018-04-07T15:08:10.443Z,19.70
2018-04-07T15:10:39.334Z,19.70
2018-04-07T15:13:07.471Z,19.70
2018-04-07T15:15:35.599Z,19.80
2018-04-07T15:18:03.738Z,19.70
2018-04-07T15:20:32.626Z,19.60
2018-04-07T15:23:01.553Z,19.60
2018-04-07T15:25:29.677Z,19.60
2018-04-07T15:27:57.810Z,19.60
2018-04-07T15:30:25.922Z,19.60
2018-04-07T15:32:54.830Z,19.50
2018-04-07T15:35:22.945Z,19.50
2018-04-07T15:37:51.140Z,19.60
2018-04-07T15:40:19.238Z,19.60
2018-04-07T15:42:48.126Z,19.60
2018-04-07T15:45:17.034Z,19.50
2018-04-07T15:47:45.162Z,19.50
2018-04-07T15:50:13.291Z,19.50
2018-04-07T15:52:41.434Z,19.40
2018-04-07T15:55:09.940Z,19.40
2018-04-07T15:57:38.066Z,19.40
2018-04-07T16:00:06.979Z,19.30
2018-04-07T16:02:35.094Z,19.30
2018-04-07T16:05:03.236Z,19.30
2018-04-07T16:07:31.354Z,19.30
2018-04-07T16:09:59.489Z,19.30
2018-04-07T16:12:27.638Z,19.20
2018-04-07T16:14:55.764Z,19.20
2018-04-07T16:17:23.901Z,19.20
2018-04-07T16:19:52.025Z,19.20
2018-04-07T16:22:20.153Z,19.20
2018-04-07T16:24:48.278Z,19.10
2018-04-07T16:27:17.174Z,19.10
2018-04-07T16:29:46.057Z,19.00
2018-04-07T16:32:14.968Z,19.00
2018-04-07T16:34:43.093Z,19.00
2018-04-07T16:37:11.999Z,18.90
2018-04-07T16:39:40.901Z,18.90
2018-04-07T16:42:09.801Z,18.90
2018-04-07T16:44:37.930Z,18.80
2018-04-07T16:47:06.073Z,18.80
2018-04-07T16:49:34.195Z,18.70
2018-04-07T16:52:03.100Z,18.60
2018-04-07T16:54:32.329Z,18.50
2018-04-07T16:57:00.444Z,18.50
2018-04-07T16:59:28.581Z,18.50
2018-04-07T17:01:56.705Z,18.40
2018-04-07T17:04:25.610Z,18.20
2018-04-07T17:06:53.733Z,18.30
2018-04-07T17:09:22.676Z,18.10
2018-04-07T17:11:50.797Z,18.10
2018-04-07T17:14:19.005Z,18.10
2018-04-07T17:16:47.135Z,18.00
2018-04-07T17:19:15.271Z,18.00
2018-04-07T17:21:43.385Z,18.00
2018-04-07T17:24:11.521Z,17.90
2018-04-07T17:26:39.636Z,17.80
2018-04-07T17:29:07.780Z,17.70
2018-04-07T17:31:35.911Z,17.80
2018-04-07T17:34:04.037Z,17.70
2018-04-07T17:36:32.157Z,17.60
2018-04-07T17:39:00.279Z,17.50
2018-04-07T17:41:28.414Z,17.50
2018-04-07T17:43:56.550Z,17.50
2018-04-07T17:46:25.446Z,17.30
2018-04-07T17:49:05.990Z,17.20
2018-04-07T17:51:22.461Z,17.20
2018-04-07T17:53:50.589Z,17.20
2018-04-07T17:56:18.748Z,17.20
2018-04-07T17:58:46.868Z,17.00
2018-04-07T18:01:15.021Z,16.90
2018-04-07T18:03:43.254Z,16.70
2018-04-07T18:06:11.386Z,16.40
2018-04-07T18:08:39.504Z,16.30
2018-04-07T18:11:08.522Z,16.10
2018-04-07T18:13:36.661Z,16.00
2018-04-07T18:16:05.558Z,15.90
2018-04-07T18:18:33.702Z,15.90
2018-04-07T18:21:01.826Z,15.80
2018-04-07T18:23:29.970Z,15.70
2018-04-07T18:25:58.863Z,15.30
2018-04-07T18:28:27.001Z,15.30
2018-04-07T18:30:55.122Z,15.10
2018-04-07T18:33:23.300Z,14.90
2018-04-07T18:35:51.378Z,14.60
2018-04-07T18:38:19.515Z,14.30
2018-04-07T18:40:48.470Z,14.10
2018-04-07T18:43:16.618Z,14.10
2018-04-07T18:45:44.730Z,14.00
2018-04-07T18:48:12.869Z,14.00
2018-04-07T18:50:40.990Z,14.00
2018-04-07T18:53:09.897Z,14.00
2018-04-07T18:55:38.018Z,13.90
2018-04-07T18:58:06.153Z,13.80
2018-04-07T19:00:34.358Z,13.60
2018-04-07T19:03:02.514Z,13.50
2018-04-07T19:05:30.633Z,13.50
2018-04-07T19:07:59.510Z,13.40
2018-04-07T19:10:27.650Z,13.40
2018-04-07T19:12:55.770Z,13.40
2018-04-07T19:15:24.778Z,13.40
2018-04-07T19:17:52.933Z,13.40
2018-04-07T19:20:21.087Z,13.40
2018-04-07T19:22:49.212Z,13.50
2018-04-07T19:25:17.350Z,13.70
2018-04-07T19:27:45.493Z,13.80
2018-04-07T19:30:13.670Z,14.00
2018-04-07T19:32:41.797Z,14.00
2018-04-07T19:35:09.941Z,13.90
2018-04-07T19:37:38.831Z,13.40
2018-04-07T19:40:07.721Z,13.10
2018-04-07T19:42:35.842Z,13.10
2018-04-07T19:45:03.972Z,12.90
2018-04-07T19:47:32.103Z,12.90
2018-04-07T19:50:00.241Z,13.00
2018-04-07T19:52:28.364Z,13.20
2018-04-07T19:54:57.255Z,13.30
2018-04-07T19:57:26.156Z,13.30
2018-04-07T19:59:54.378Z,13.40
2018-04-07T20:02:22.499Z,13.30
2018-04-07T20:04:50.620Z,13.20
2018-04-07T20:07:18.748Z,13.00
2018-04-07T20:09:46.874Z,12.90
2018-04-07T20:12:15.021Z,12.80
2018-04-07T20:14:43.141Z,13.10
2018-04-07T20:17:12.045Z,13.30
2018-04-07T20:19:40.165Z,13.30
2018-04-07T20:22:08.302Z,13.30
2018-04-07T20:24:36.425Z,13.40
2018-04-07T20:27:04.578Z,13.30
2018-04-07T20:29:32.702Z,13.30
2018-04-07T20:32:00.968Z,13.30
2018-04-07T20:34:29.086Z,13.30
2018-04-07T20:36:57.210Z,13.20
2018-04-07T20:39:26.105Z,13.00
2018-04-07T20:41:54.237Z,13.00
2018-04-07T20:44:33.297Z,12.90
2018-04-07T20:47:01.435Z,12.60
2018-04-07T20:49:29.758Z,12.40
2018-04-07T20:51:57.889Z,12.40
2018-04-07T20:54:26.029Z,12.40
2018-04-07T20:56:54.166Z,12.40
2018-04-07T20:59:22.350Z,12.30
2018-04-07T21:01:50.477Z,12.30
2018-04-07T21:04:18.611Z,12.30
2018-04-07T21:06:46.733Z,12.30
2018-04-07T21:09:14.862Z,12.20
2018-04-07T21:11:43.132Z,12.20
2018-04-07T21:14:11.269Z,12.20
2018-04-07T21:16:40.264Z,12.10
2018-04-07T21:19:08.421Z,12.10
2018-04-07T21:21:36.521Z,12.10
2018-04-07T21:24:04.646Z,12.00
2018-04-07T21:26:32.801Z,12.00
2018-04-07T21:29:00.918Z,11.90
2018-04-07T21:31:29.069Z,12.00
2018-04-07T21:33:57.184Z,12.00
2018-04-07T21:36:25.322Z,11.90
2018-04-07T21:38:54.204Z,11.90
2018-04-07T21:41:23.203Z,11.80
2018-04-07T21:43:51.403Z,11.80
2018-04-07T21:46:19.542Z,11.80
2018-04-07T21:48:48.434Z,11.80
2018-04-07T21:51:17.347Z,11.80
2018-04-07T21:53:45.476Z,11.80
2018-04-07T21:56:13.650Z,11.80
2018-04-07T21:58:41.773Z,11.80
2018-04-07T22:01:09.895Z,11.60
2018-04-07T22:03:38.090Z,11.60
2018-04-07T22:06:06.238Z,11.60
2018-04-07T22:08:34.382Z,11.50
2018-04-07T22:11:02.510Z,11.60
2018-04-07T22:13:30.656Z,11.60
2018-04-07T22:15:58.787Z,11.70
2018-04-07T22:18:26.930Z,11.60
2018-04-07T22:20:55.061Z,11.60
2018-04-07T22:23:23.206Z,11.50
2018-04-07T22:25:51.342Z,11.30
2018-04-07T22:28:19.483Z,11.20
2018-04-07T22:30:47.631Z,11.00
2018-04-07T22:33:15.771Z,10.90
2018-04-07T22:35:43.893Z,10.70
2018-04-07T22:38:12.059Z,10.60
2018-04-07T22:40:40.216Z,10.60
2018-04-07T22:43:08.345Z,10.50
2018-04-07T22:45:36.512Z,10.40
2018-04-07T22:48:04.646Z,10.10
2018-04-07T22:50:32.790Z,9.60
2018-04-07T22:53:00.932Z,9.30
2018-04-07T22:55:29.058Z,9.50
2018-04-07T22:57:57.182Z,9.60
2018-04-07T23:00:25.329Z,9.60
2018-04-07T23:02:54.228Z,9.70
2018-04-07T23:05:22.366Z,9.70
2018-04-07T23:07:50.490Z,9.70
2018-04-07T23:10:18.632Z,9.80
2018-04-07T23:12:47.522Z,9.80
2018-04-07T23:15:16.442Z,9.70
2018-04-07T23:17:44.575Z,9.70
2018-04-07T23:20:12.683Z,9.80
2018-04-07T23:22:40.832Z,9.80
2018-04-07T23:25:08.951Z,9.80
2018-04-07T23:27:37.093Z,9.80
2018-04-07T23:30:05.224Z,9.60
2018-04-07T23:32:34.158Z,9.50
2018-04-07T23:35:02.290Z,9.50
2018-04-07T23:37:31.186Z,9.70
2018-04-07T23:40:00.075Z,9.60
2018-04-07T23:42:28.986Z,9.50
2018-04-07T23:44:57.109Z,9.40
2018-04-07T23:47:25.260Z,9.50
2018-04-07T23:49:53.455Z,9.60
2018-04-07T23:52:21.575Z,9.60
2018-04-07T23:54:49.721Z,9.60
2018-04-07T23:57:18.616Z,9.60
2018-04-07T23:59:47.526Z,9.60
